sensor_id;sensor_type;location;lat;lon;timestamp;pressure;altitude;pressure_sealevel;temperature;humidity
9969;BME280;5025;48.890;9.278;2023-03-29T00:01:55;99191.91;;;7.59;60.35
9969;BME280;5025;48.890;9.278;2023-03-29T00:04:20;99181.38;;;7.57;60.20
9969;BME280;5025;48.890;9.278;2023-03-29T00:06:46;99188.59;;;7.57;60.19
9969;BME280;5025;48.890;9.278;2023-03-29T00:09:14;99179.72;;;7.56;60.40
9969;BME280;5025;48.890;9.278;2023-03-29T00:11:40;99173.31;;;7.57;60.50
9969;BME280;5025;48.890;9.278;2023-03-29T00:14:06;99185.72;;;7.58;60.56
9969;BME280;5025;48.890;9.278;2023-03-29T00:16:31;99189.03;;;7.60;60.48
9969;BME280;5025;48.890;9.278;2023-03-29T00:18:57;99175.78;;;7.59;60.61
9969;BME280;5025;48.890;9.278;2023-03-29T00:21:22;99169.59;;;7.58;60.81
9969;BME280;5025;48.890;9.278;2023-03-29T00:23:47;99175.59;;;7.60;60.57
9969;BME280;5025;48.890;9.278;2023-03-29T00:26:13;99172.50;;;7.63;60.74
9969;BME280;5025;48.890;9.278;2023-03-29T00:28:38;99163.00;;;7.61;60.88
9969;BME280;5025;48.890;9.278;2023-03-29T00:31:14;99165.50;;;7.62;60.79
9969;BME280;5025;48.890;9.278;2023-03-29T00:33:42;99161.13;;;7.61;61.11
9969;BME280;5025;48.890;9.278;2023-03-29T00:36:08;99161.34;;;7.60;61.09
9969;BME280;5025;48.890;9.278;2023-03-29T00:38:35;99161.34;;;7.60;61.40
9969;BME280;5025;48.890;9.278;2023-03-29T00:41:01;99156.16;;;7.58;61.45
9969;BME280;5025;48.890;9.278;2023-03-29T00:43:26;99153.06;;;7.54;61.26
9969;BME280;5025;48.890;9.278;2023-03-29T00:45:51;99155.53;;;7.56;61.81
9969;BME280;5025;48.890;9.278;2023-03-29T00:48:20;99151.38;;;7.53;61.88
9969;BME280;5025;48.890;9.278;2023-03-29T00:50:59;99153.47;;;7.51;61.95
9969;BME280;5025;48.890;9.278;2023-03-29T00:56:08;99150.50;;;7.46;62.76
9969;BME280;5025;48.890;9.278;2023-03-29T01:01:10;99140.97;;;7.37;63.04
9969;BME280;5025;48.890;9.278;2023-03-29T01:03:44;99141.34;;;7.34;63.33
9969;BME280;5025;48.890;9.278;2023-03-29T01:06:13;99141.75;;;7.31;63.74
9969;BME280;5025;48.890;9.278;2023-03-29T01:08:43;99132.69;;;7.32;63.77
9969;BME280;5025;48.890;9.278;2023-03-29T01:11:17;99127.31;;;7.32;63.70
9969;BME280;5025;48.890;9.278;2023-03-29T01:13:52;99117.78;;;7.29;63.80
9969;BME280;5025;48.890;9.278;2023-03-29T01:16:21;99119.44;;;7.30;63.98
9969;BME280;5025;48.890;9.278;2023-03-29T01:18:48;99112.00;;;7.32;64.01
9969;BME280;5025;48.890;9.278;2023-03-29T01:21:24;99116.97;;;7.29;64.23
9969;BME280;5025;48.890;9.278;2023-03-29T01:24:20;99109.09;;;7.27;63.94
9969;BME280;5025;48.890;9.278;2023-03-29T01:27:04;99110.78;;;7.28;64.24
9969;BME280;5025;48.890;9.278;2023-03-29T01:29:34;99107.44;;;7.26;64.21
9969;BME280;5025;48.890;9.278;2023-03-29T01:32:06;99087.59;;;7.21;64.42
9969;BME280;5025;48.890;9.278;2023-03-29T01:37:46;99081.56;;;7.18;64.76
9969;BME280;5025;48.890;9.278;2023-03-29T01:40:14;99075.78;;;7.15;64.87
9969;BME280;5025;48.890;9.278;2023-03-29T01:42:48;99066.06;;;7.14;65.42
9969;BME280;5025;48.890;9.278;2023-03-29T01:45:23;99058.59;;;7.09;65.41
9969;BME280;5025;48.890;9.278;2023-03-29T01:48:07;99054.47;;;7.07;65.49
9969;BME280;5025;48.890;9.278;2023-03-29T01:50:50;99062.28;;;7.02;65.65
9969;BME280;5025;48.890;9.278;2023-03-29T01:53:51;99057.28;;;6.98;65.84
9969;BME280;5025;48.890;9.278;2023-03-29T01:56:12;99053.59;;;6.99;65.94
9969;BME280;5025;48.890;9.278;2023-03-29T01:58:42;99042.84;;;6.99;66.08
9969;BME280;5025;48.890;9.278;2023-03-29T02:01:10;99040.78;;;6.95;66.20
9969;BME280;5025;48.890;9.278;2023-03-29T02:03:41;99052.72;;;6.92;66.24
9969;BME280;5025;48.890;9.278;2023-03-29T02:06:10;99059.38;;;6.96;66.28
9969;BME280;5025;48.890;9.278;2023-03-29T02:08:38;99047.81;;;6.96;66.16
9969;BME280;5025;48.890;9.278;2023-03-29T02:11:05;99047.41;;;6.99;66.17
9969;BME280;5025;48.890;9.278;2023-03-29T02:13:32;99040.78;;;7.02;65.96
9969;BME280;5025;48.890;9.278;2023-03-29T02:15:57;99036.28;;;7.02;66.09
9969;BME280;5025;48.890;9.278;2023-03-29T02:18:27;99028.00;;;7.04;65.93
9969;BME280;5025;48.890;9.278;2023-03-29T02:20:53;99034.63;;;7.08;66.37
9969;BME280;5025;48.890;9.278;2023-03-29T02:23:27;99016.22;;;7.05;66.00
9969;BME280;5025;48.890;9.278;2023-03-29T02:25:58;99016.03;;;7.06;66.01
9969;BME280;5025;48.890;9.278;2023-03-29T02:28:25;99010.44;;;7.08;65.85
9969;BME280;5025;48.890;9.278;2023-03-29T02:31:24;99003.66;;;7.05;66.07
9969;BME280;5025;48.890;9.278;2023-03-29T02:34:01;99012.91;;;7.03;66.06
9969;BME280;5025;48.890;9.278;2023-03-29T02:36:41;99013.53;;;7.05;66.00
9969;BME280;5025;48.890;9.278;2023-03-29T02:39:09;99011.91;;;7.04;65.97
9969;BME280;5025;48.890;9.278;2023-03-29T02:41:41;99016.03;;;7.06;65.94
9969;BME280;5025;48.890;9.278;2023-03-29T02:44:10;99019.97;;;7.04;66.08
9969;BME280;5025;48.890;9.278;2023-03-29T02:46:38;99005.88;;;7.02;65.96
9969;BME280;5025;48.890;9.278;2023-03-29T02:49:07;98999.69;;;7.01;66.14
9969;BME280;5025;48.890;9.278;2023-03-29T02:51:35;98986.28;;;7.01;66.31
9969;BME280;5025;48.890;9.278;2023-03-29T02:54:05;98988.13;;;7.00;66.34
9969;BME280;5025;48.890;9.278;2023-03-29T02:56:54;98976.34;;;7.02;66.27
9969;BME280;5025;48.890;9.278;2023-03-29T02:59:20;98971.19;;;7.00;66.41
9969;BME280;5025;48.890;9.278;2023-03-29T03:01:49;98966.84;;;6.99;66.46
9969;BME280;5025;48.890;9.278;2023-03-29T03:04:15;98968.69;;;6.98;66.25
9969;BME280;5025;48.890;9.278;2023-03-29T03:06:42;98953.63;;;6.97;66.29
9969;BME280;5025;48.890;9.278;2023-03-29T03:09:07;98959.00;;;6.97;66.25
9969;BME280;5025;48.890;9.278;2023-03-29T03:11:34;98960.84;;;6.97;66.31
9969;BME280;5025;48.890;9.278;2023-03-29T03:13:59;98953.00;;;6.95;66.19
9969;BME280;5025;48.890;9.278;2023-03-29T03:16:25;98947.41;;;6.97;66.45
9969;BME280;5025;48.890;9.278;2023-03-29T03:18:51;98950.09;;;6.97;66.27
9969;BME280;5025;48.890;9.278;2023-03-29T03:21:17;98951.56;;;6.99;66.19
9969;BME280;5025;48.890;9.278;2023-03-29T03:23:44;98947.47;;;7.04;66.15
9969;BME280;5025;48.890;9.278;2023-03-29T03:26:10;98953.25;;;7.07;66.02
9969;BME280;5025;48.890;9.278;2023-03-29T03:28:36;98948.91;;;7.06;65.92
9969;BME280;5025;48.890;9.278;2023-03-29T03:31:03;98954.25;;;7.06;65.87
9969;BME280;5025;48.890;9.278;2023-03-29T03:33:28;98958.63;;;7.07;65.68
9969;BME280;5025;48.890;9.278;2023-03-29T03:35:54;98953.84;;;7.09;65.60
9969;BME280;5025;48.890;9.278;2023-03-29T03:38:27;98953.66;;;7.11;65.64
9969;BME280;5025;48.890;9.278;2023-03-29T03:40:54;98943.56;;;7.13;65.59
9969;BME280;5025;48.890;9.278;2023-03-29T03:43:20;98951.22;;;7.16;65.51
9969;BME280;5025;48.890;9.278;2023-03-29T03:45:45;98948.53;;;7.16;65.34
9969;BME280;5025;48.890;9.278;2023-03-29T03:48:11;98952.84;;;7.17;65.24
9969;BME280;5025;48.890;9.278;2023-03-29T03:50:36;98953.91;;;7.16;65.15
9969;BME280;5025;48.890;9.278;2023-03-29T03:53:02;98944.59;;;7.18;65.11
9969;BME280;5025;48.890;9.278;2023-03-29T03:55:27;98944.19;;;7.22;64.88
9969;BME280;5025;48.890;9.278;2023-03-29T03:57:54;98950.41;;;7.22;64.88
9969;BME280;5025;48.890;9.278;2023-03-29T04:00:19;98943.97;;;7.23;64.81
9969;BME280;5025;48.890;9.278;2023-03-29T04:02:45;98946.66;;;7.23;64.59
9969;BME280;5025;48.890;9.278;2023-03-29T04:05:12;98942.97;;;7.24;64.80
9969;BME280;5025;48.890;9.278;2023-03-29T04:07:38;98945.44;;;7.26;64.76
9969;BME280;5025;48.890;9.278;2023-03-29T04:10:08;98951.44;;;7.28;64.98
9969;BME280;5025;48.890;9.278;2023-03-29T04:12:37;98958.25;;;7.30;64.54
9969;BME280;5025;48.890;9.278;2023-03-29T04:15:03;98956.19;;;7.32;64.73
9969;BME280;5025;48.890;9.278;2023-03-29T04:17:29;98951.47;;;7.34;64.73
9969;BME280;5025;48.890;9.278;2023-03-29T04:19:54;98953.31;;;7.34;64.62
9969;BME280;5025;48.890;9.278;2023-03-29T04:22:21;98961.56;;;7.32;64.50
9969;BME280;5025;48.890;9.278;2023-03-29T04:24:46;98963.44;;;7.32;64.65
9969;BME280;5025;48.890;9.278;2023-03-29T04:27:12;98951.22;;;7.29;64.67
9969;BME280;5025;48.890;9.278;2023-03-29T04:29:37;98968.41;;;7.28;64.79
9969;BME280;5025;48.890;9.278;2023-03-29T04:32:02;98968.81;;;7.32;64.31
9969;BME280;5025;48.890;9.278;2023-03-29T04:34:28;98956.59;;;7.29;64.61
9969;BME280;5025;48.890;9.278;2023-03-29T04:36:53;98962.63;;;7.31;64.54
9969;BME280;5025;48.890;9.278;2023-03-29T04:39:18;98961.56;;;7.32;64.52
9969;BME280;5025;48.890;9.278;2023-03-29T04:41:44;98967.78;;;7.33;64.62
9969;BME280;5025;48.890;9.278;2023-03-29T04:44:10;98958.88;;;7.32;64.77
9969;BME280;5025;48.890;9.278;2023-03-29T04:46:35;98951.66;;;7.33;64.59
9969;BME280;5025;48.890;9.278;2023-03-29T04:49:03;98955.78;;;7.35;64.61
9969;BME280;5025;48.890;9.278;2023-03-29T04:51:29;98952.09;;;7.36;64.46
9969;BME280;5025;48.890;9.278;2023-03-29T04:53:54;98959.72;;;7.40;64.48
9969;BME280;5025;48.890;9.278;2023-03-29T04:56:19;98961.00;;;7.44;64.62
9969;BME280;5025;48.890;9.278;2023-03-29T04:58:45;98959.94;;;7.45;64.45
9969;BME280;5025;48.890;9.278;2023-03-29T05:01:10;98968.44;;;7.48;64.40
9969;BME280;5025;48.890;9.278;2023-03-29T05:03:35;98964.69;;;7.49;64.38
9969;BME280;5025;48.890;9.278;2023-03-29T05:06:02;98971.53;;;7.52;64.31
9969;BME280;5025;48.890;9.278;2023-03-29T05:08:31;98966.16;;;7.52;64.20
9969;BME280;5025;48.890;9.278;2023-03-29T05:10:57;98961.41;;;7.54;64.48
9969;BME280;5025;48.890;9.278;2023-03-29T05:13:22;98960.38;;;7.55;64.35
9969;BME280;5025;48.890;9.278;2023-03-29T05:15:47;98959.34;;;7.56;64.44
9969;BME280;5025;48.890;9.278;2023-03-29T05:18:13;98957.50;;;7.57;64.46
9969;BME280;5025;48.890;9.278;2023-03-29T05:20:38;98959.16;;;7.58;64.29
9969;BME280;5025;48.890;9.278;2023-03-29T05:23:04;98959.56;;;7.61;64.16
9969;BME280;5025;48.890;9.278;2023-03-29T05:25:29;98955.00;;;7.62;64.26
9969;BME280;5025;48.890;9.278;2023-03-29T05:27:55;98954.59;;;7.65;64.05
9969;BME280;5025;48.890;9.278;2023-03-29T05:30:20;98952.75;;;7.65;63.96
9969;BME280;5025;48.890;9.278;2023-03-29T05:32:46;98954.38;;;7.66;64.03
9969;BME280;5025;48.890;9.278;2023-03-29T05:35:12;98951.69;;;7.66;63.94
9969;BME280;5025;48.890;9.278;2023-03-29T05:37:37;98948.81;;;7.68;63.91
9969;BME280;5025;48.890;9.278;2023-03-29T05:40:03;98940.53;;;7.69;63.86
9969;BME280;5025;48.890;9.278;2023-03-29T05:42:31;98952.75;;;7.72;63.59
9969;BME280;5025;48.890;9.278;2023-03-29T05:44:56;98952.34;;;7.75;63.56
9969;BME280;5025;48.890;9.278;2023-03-29T05:47:21;98954.81;;;7.77;63.46
9969;BME280;5025;48.890;9.278;2023-03-29T05:49:47;98948.22;;;7.79;63.27
9969;BME280;5025;48.890;9.278;2023-03-29T05:52:16;98955.00;;;7.82;63.23
9969;BME280;5025;48.890;9.278;2023-03-29T05:54:42;98951.91;;;7.85;63.12
9969;BME280;5025;48.890;9.278;2023-03-29T05:57:07;98952.56;;;7.87;62.92
9969;BME280;5025;48.890;9.278;2023-03-29T05:59:33;98957.94;;;7.87;62.87
9969;BME280;5025;48.890;9.278;2023-03-29T06:01:58;98958.53;;;7.89;62.74
9969;BME280;5025;48.890;9.278;2023-03-29T06:04:24;98966.59;;;7.89;62.74
9969;BME280;5025;48.890;9.278;2023-03-29T06:06:50;98962.44;;;7.93;62.77
9969;BME280;5025;48.890;9.278;2023-03-29T06:09:17;98965.78;;;7.95;62.57
9969;BME280;5025;48.890;9.278;2023-03-29T06:11:43;98958.53;;;7.96;62.44
9969;BME280;5025;48.890;9.278;2023-03-29T06:14:09;98962.69;;;7.98;62.30
9969;BME280;5025;48.890;9.278;2023-03-29T06:16:34;98969.69;;;7.99;61.97
9969;BME280;5025;48.890;9.278;2023-03-29T06:19:00;98963.69;;;7.97;61.92
9969;BME280;5025;48.890;9.278;2023-03-29T06:21:25;98956.47;;;7.91;62.10
9969;BME280;5025;48.890;9.278;2023-03-29T06:23:51;98974.88;;;7.94;61.79
9969;BME280;5025;48.890;9.278;2023-03-29T06:26:16;98965.34;;;7.92;62.06
9969;BME280;5025;48.890;9.278;2023-03-29T06:28:41;98972.81;;;7.83;62.64
9969;BME280;5025;48.890;9.278;2023-03-29T06:31:07;98974.06;;;7.87;62.87
9969;BME280;5025;48.890;9.278;2023-03-29T06:33:34;98977.97;;;7.91;62.77
9969;BME280;5025;48.890;9.278;2023-03-29T06:36:01;98979.66;;;7.85;63.10
9969;BME280;5025;48.890;9.278;2023-03-29T06:38:26;98985.22;;;7.84;63.58
9969;BME280;5025;48.890;9.278;2023-03-29T06:40:59;98980.66;;;7.91;63.47
9969;BME280;5025;48.890;9.278;2023-03-29T06:43:26;98974.88;;;7.94;63.60
9969;BME280;5025;48.890;9.278;2023-03-29T06:45:52;98976.53;;;7.95;63.60
9969;BME280;5025;48.890;9.278;2023-03-29T06:48:18;98981.50;;;7.98;63.55
9969;BME280;5025;48.890;9.278;2023-03-29T06:50:43;98986.06;;;8.04;63.65
9969;BME280;5025;48.890;9.278;2023-03-29T06:53:08;98991.22;;;8.06;63.75
9969;BME280;5025;48.890;9.278;2023-03-29T06:55:34;98992.66;;;8.08;63.56
9969;BME280;5025;48.890;9.278;2023-03-29T06:58:00;98992.22;;;8.12;63.84
9969;BME280;5025;48.890;9.278;2023-03-29T07:00:26;98991.81;;;8.15;63.65
9969;BME280;5025;48.890;9.278;2023-03-29T07:02:54;98986.03;;;8.18;63.90
9969;BME280;5025;48.890;9.278;2023-03-29T07:05:20;98991.84;;;8.21;63.75
9969;BME280;5025;48.890;9.278;2023-03-29T07:07:46;98992.25;;;8.25;63.71
9969;BME280;5025;48.890;9.278;2023-03-29T07:10:24;98991.81;;;8.28;63.89
9969;BME280;5025;48.890;9.278;2023-03-29T07:12:51;98999.25;;;8.33;63.91
9969;BME280;5025;48.890;9.278;2023-03-29T07:15:17;98996.97;;;8.36;64.01
9969;BME280;5025;48.890;9.278;2023-03-29T07:17:42;99000.09;;;8.40;63.98
9969;BME280;5025;48.890;9.278;2023-03-29T07:20:08;98996.13;;;8.42;63.92
9969;BME280;5025;48.890;9.278;2023-03-29T07:22:40;98996.81;;;8.45;64.06
9969;BME280;5025;48.890;9.278;2023-03-29T07:25:06;99005.50;;;8.47;64.14
9969;BME280;5025;48.890;9.278;2023-03-29T07:27:34;99005.06;;;8.50;63.99
9969;BME280;5025;48.890;9.278;2023-03-29T07:29:59;99004.03;;;8.51;63.88
9969;BME280;5025;48.890;9.278;2023-03-29T07:32:24;99014.59;;;8.52;63.99
9969;BME280;5025;48.890;9.278;2023-03-29T07:34:50;99019.34;;;8.57;63.89
9969;BME280;5025;48.890;9.278;2023-03-29T07:37:15;99017.47;;;8.57;63.80
9969;BME280;5025;48.890;9.278;2023-03-29T07:39:41;99013.75;;;8.58;63.70
9969;BME280;5025;48.890;9.278;2023-03-29T07:42:06;99016.47;;;8.58;63.85
9969;BME280;5025;48.890;9.278;2023-03-29T07:44:32;99017.28;;;8.59;64.10
9969;BME280;5025;48.890;9.278;2023-03-29T07:47:00;99028.03;;;8.59;64.04
9969;BME280;5025;48.890;9.278;2023-03-29T07:49:25;99024.31;;;8.60;64.15
9969;BME280;5025;48.890;9.278;2023-03-29T07:51:51;99019.53;;;8.62;64.17
9969;BME280;5025;48.890;9.278;2023-03-29T07:54:16;99028.00;;;8.66;64.01
9969;BME280;5025;48.890;9.278;2023-03-29T07:56:41;99027.81;;;8.67;63.99
9969;BME280;5025;48.890;9.278;2023-03-29T07:59:07;99030.72;;;8.72;63.83
9969;BME280;5025;48.890;9.278;2023-03-29T08:01:32;99027.38;;;8.77;63.61
9969;BME280;5025;48.890;9.278;2023-03-29T08:03:58;99027.19;;;8.78;63.48
9969;BME280;5025;48.890;9.278;2023-03-29T08:06:23;99024.06;;;8.82;63.28
9969;BME280;5025;48.890;9.278;2023-03-29T08:08:51;99029.84;;;8.85;63.25
9969;BME280;5025;48.890;9.278;2023-03-29T08:11:16;99020.53;;;8.88;62.81
9969;BME280;5025;48.890;9.278;2023-03-29T08:13:41;99017.41;;;8.91;62.65
9969;BME280;5025;48.890;9.278;2023-03-29T08:16:07;99020.72;;;8.93;62.26
9969;BME280;5025;48.890;9.278;2023-03-29T08:18:32;99022.75;;;8.97;62.23
9969;BME280;5025;48.890;9.278;2023-03-29T08:20:58;99023.16;;;9.01;62.08
9969;BME280;5025;48.890;9.278;2023-03-29T08:23:24;99018.78;;;9.07;61.89
9969;BME280;5025;48.890;9.278;2023-03-29T08:25:49;99024.38;;;9.12;61.77
9969;BME280;5025;48.890;9.278;2023-03-29T08:28:14;99010.69;;;9.13;61.35
9969;BME280;5025;48.890;9.278;2023-03-29T08:30:40;99016.88;;;9.21;61.26
9969;BME280;5025;48.890;9.278;2023-03-29T08:33:06;99012.47;;;9.26;61.28
9969;BME280;5025;48.890;9.278;2023-03-29T08:35:31;99011.03;;;9.30;60.93
9969;BME280;5025;48.890;9.278;2023-03-29T08:37:57;99021.75;;;9.37;60.47
9969;BME280;5025;48.890;9.278;2023-03-29T08:40:25;99017.16;;;9.44;60.45
9969;BME280;5025;48.890;9.278;2023-03-29T08:50:56;99024.53;;;9.62;59.88
9969;BME280;5025;48.890;9.278;2023-03-29T08:53:28;99021.19;;;9.67;59.70
9969;BME280;5025;48.890;9.278;2023-03-29T08:55:58;99010.78;;;9.71;59.48
9969;BME280;5025;48.890;9.278;2023-03-29T08:58:27;99010.13;;;9.75;59.49
9969;BME280;5025;48.890;9.278;2023-03-29T09:00:57;99004.91;;;9.80;59.23
9969;BME280;5025;48.890;9.278;2023-03-29T09:03:25;99002.63;;;9.84;59.38
9969;BME280;5025;48.890;9.278;2023-03-29T09:06:03;98998.41;;;9.88;59.18
9969;BME280;5025;48.890;9.278;2023-03-29T09:08:30;98993.44;;;9.92;59.26
9969;BME280;5025;48.890;9.278;2023-03-29T09:14:01;98995.78;;;10.07;59.05
9969;BME280;5025;48.890;9.278;2023-03-29T09:17:16;98995.53;;;10.15;58.89
9969;BME280;5025;48.890;9.278;2023-03-29T09:19:48;99005.22;;;10.22;58.66
9969;BME280;5025;48.890;9.278;2023-03-29T09:22:36;99002.25;;;10.31;58.28
9969;BME280;5025;48.890;9.278;2023-03-29T09:25:25;98990.81;;;10.35;58.23
9969;BME280;5025;48.890;9.278;2023-03-29T09:28:17;98993.22;;;10.44;58.05
9969;BME280;5025;48.890;9.278;2023-03-29T09:30:54;98997.28;;;10.53;57.98
9969;BME280;5025;48.890;9.278;2023-03-29T09:33:25;99001.78;;;10.59;57.57
9969;BME280;5025;48.890;9.278;2023-03-29T09:35:59;98994.22;;;10.68;57.26
9969;BME280;5025;48.890;9.278;2023-03-29T09:38:28;98991.22;;;10.76;56.71
9969;BME280;5025;48.890;9.278;2023-03-29T09:41:03;98989.88;;;10.85;56.51
9969;BME280;5025;48.890;9.278;2023-03-29T09:43:34;98979.13;;;10.97;56.16
9969;BME280;5025;48.890;9.278;2023-03-29T09:46:08;98972.81;;;11.03;55.93
9969;BME280;5025;48.890;9.278;2023-03-29T09:48:37;98966.75;;;11.08;55.79
9969;BME280;5025;48.890;9.278;2023-03-29T09:51:05;98966.66;;;11.15;55.94
9969;BME280;5025;48.890;9.278;2023-03-29T09:53:32;98962.00;;;11.22;55.46
9969;BME280;5025;48.890;9.278;2023-03-29T09:55:59;98956.72;;;11.27;55.17
9969;BME280;5025;48.890;9.278;2023-03-29T09:58:27;98957.22;;;11.36;54.73
9969;BME280;5025;48.890;9.278;2023-03-29T10:00:59;98959.59;;;11.44;54.33
9969;BME280;5025;48.890;9.278;2023-03-29T10:03:27;98960.78;;;11.48;54.14
9969;BME280;5025;48.890;9.278;2023-03-29T10:05:55;98956.31;;;11.54;53.83
9969;BME280;5025;48.890;9.278;2023-03-29T10:08:24;98959.41;;;11.57;53.61
9969;BME280;5025;48.890;9.278;2023-03-29T10:10:51;98968.00;;;11.66;53.17
9969;BME280;5025;48.890;9.278;2023-03-29T10:13:21;98965.69;;;11.70;52.96
9969;BME280;5025;48.890;9.278;2023-03-29T10:16:03;98965.06;;;11.68;52.02
9969;BME280;5025;48.890;9.278;2023-03-29T10:18:30;98967.19;;;11.65;51.27
9969;BME280;5025;48.890;9.278;2023-03-29T10:21:01;98969.09;;;11.77;51.14
9969;BME280;5025;48.890;9.278;2023-03-29T10:23:33;98958.19;;;11.83;50.99
9969;BME280;5025;48.890;9.278;2023-03-29T10:26:00;98952.03;;;11.88;51.26
9969;BME280;5025;48.890;9.278;2023-03-29T10:28:28;98955.34;;;11.90;50.67
9969;BME280;5025;48.890;9.278;2023-03-29T10:30:57;98958.44;;;11.94;50.48
9969;BME280;5025;48.890;9.278;2023-03-29T10:33:29;98943.03;;;11.94;50.28
9969;BME280;5025;48.890;9.278;2023-03-29T10:35:55;98945.16;;;12.04;50.07
9969;BME280;5025;48.890;9.278;2023-03-29T10:38:24;98942.00;;;12.07;49.89
9969;BME280;5025;48.890;9.278;2023-03-29T10:40:53;98956.13;;;12.21;49.91
9969;BME280;5025;48.890;9.278;2023-03-29T10:43:20;98948.81;;;12.33;49.76
9969;BME280;5025;48.890;9.278;2023-03-29T10:45:53;98945.50;;;12.43;49.56
9969;BME280;5025;48.890;9.278;2023-03-29T10:48:23;98938.81;;;12.46;49.28
9969;BME280;5025;48.890;9.278;2023-03-29T10:50:50;98931.25;;;12.48;49.28
9969;BME280;5025;48.890;9.278;2023-03-29T10:53:23;98928.91;;;12.40;48.15
9969;BME280;5025;48.890;9.278;2023-03-29T10:59:22;98922.94;;;12.26;47.67
9969;BME280;5025;48.890;9.278;2023-03-29T11:04:57;98913.09;;;12.60;47.60
9969;BME280;5025;48.890;9.278;2023-03-29T11:23:58;98899.41;;;13.36;47.11
9969;BME280;5025;48.890;9.278;2023-03-29T11:29:13;98881.84;;;13.56;46.79
9969;BME280;5025;48.890;9.278;2023-03-29T11:31:59;98894.19;;;13.63;46.50
9969;BME280;5025;48.890;9.278;2023-03-29T11:37:37;98889.56;;;13.81;46.05
9969;BME280;5025;48.890;9.278;2023-03-29T11:42:45;98886.50;;;14.11;45.50
9969;BME280;5025;48.890;9.278;2023-03-29T11:45:24;98884.25;;;14.25;45.69
9969;BME280;5025;48.890;9.278;2023-03-29T11:47:51;98887.81;;;14.48;45.35
9969;BME280;5025;48.890;9.278;2023-03-29T11:50:21;98884.00;;;14.66;45.12
9969;BME280;5025;48.890;9.278;2023-03-29T11:52:57;98874.44;;;14.85;44.94
9969;BME280;5025;48.890;9.278;2023-03-29T11:55:28;98865.88;;;14.99;44.77
9969;BME280;5025;48.890;9.278;2023-03-29T11:58:12;98869.81;;;15.13;44.20
9969;BME280;5025;48.890;9.278;2023-03-29T12:00:44;98871.06;;;15.28;44.14
9969;BME280;5025;48.890;9.278;2023-03-29T12:05:55;98856.47;;;15.71;43.99
9969;BME280;5025;48.890;9.278;2023-03-29T12:08:28;98855.19;;;15.79;44.17
9969;BME280;5025;48.890;9.278;2023-03-29T12:11:01;98857.78;;;15.96;44.03
9969;BME280;5025;48.890;9.278;2023-03-29T12:13:32;98841.19;;;16.03;43.74
9969;BME280;5025;48.890;9.278;2023-03-29T12:18:40;98837.69;;;16.12;43.47
9969;BME280;5025;48.890;9.278;2023-03-29T12:21:10;98834.97;;;16.12;43.17
9969;BME280;5025;48.890;9.278;2023-03-29T12:23:37;98838.00;;;16.16;43.11
9969;BME280;5025;48.890;9.278;2023-03-29T12:26:23;98829.31;;;16.19;42.97
9969;BME280;5025;48.890;9.278;2023-03-29T12:32:01;98832.22;;;16.07;42.88
9969;BME280;5025;48.890;9.278;2023-03-29T12:35:04;98828.63;;;16.02;42.68
9969;BME280;5025;48.890;9.278;2023-03-29T12:38:07;98819.94;;;16.00;42.75
9969;BME280;5025;48.890;9.278;2023-03-29T12:40:39;98831.41;;;16.07;42.79
9969;BME280;5025;48.890;9.278;2023-03-29T12:43:08;98832.50;;;16.11;42.76
9969;BME280;5025;48.890;9.278;2023-03-29T12:45:43;98828.72;;;16.12;42.79
9969;BME280;5025;48.890;9.278;2023-03-29T12:48:16;98826.53;;;16.09;43.08
9969;BME280;5025;48.890;9.278;2023-03-29T12:50:58;98834.44;;;16.10;43.27
9969;BME280;5025;48.890;9.278;2023-03-29T12:56:15;98846.44;;;16.15;43.50
9969;BME280;5025;48.890;9.278;2023-03-29T13:01:36;98828.25;;;16.25;43.82
9969;BME280;5025;48.890;9.278;2023-03-29T13:04:36;98831.59;;;16.43;43.73
9969;BME280;5025;48.890;9.278;2023-03-29T13:07:03;98824.75;;;16.40;43.50
9969;BME280;5025;48.890;9.278;2023-03-29T13:09:46;98831.09;;;16.56;43.31
9969;BME280;5025;48.890;9.278;2023-03-29T13:14:43;98828.44;;;16.82;43.19
9969;BME280;5025;48.890;9.278;2023-03-29T13:17:23;98833.13;;;16.87;43.52
9969;BME280;5025;48.890;9.278;2023-03-29T13:22:56;98833.34;;;16.80;43.67
9969;BME280;5025;48.890;9.278;2023-03-29T13:28:32;98829.78;;;16.64;43.02
9969;BME280;5025;48.890;9.278;2023-03-29T13:34:02;98830.44;;;16.28;43.20
9969;BME280;5025;48.890;9.278;2023-03-29T13:36:34;98830.41;;;16.23;43.43
9969;BME280;5025;48.890;9.278;2023-03-29T13:39:05;98834.72;;;16.14;43.61
9969;BME280;5025;48.890;9.278;2023-03-29T13:44:25;98838.13;;;15.94;43.31
9969;BME280;5025;48.890;9.278;2023-03-29T13:47:13;98842.25;;;15.64;43.54
9969;BME280;5025;48.890;9.278;2023-03-29T13:49:42;98846.66;;;15.38;45.31
9969;BME280;5025;48.890;9.278;2023-03-29T13:52:17;98847.28;;;15.18;46.19
9969;BME280;5025;48.890;9.278;2023-03-29T13:57:34;98835.81;;;15.11;46.83
9969;BME280;5025;48.890;9.278;2023-03-29T14:00:08;98821.31;;;15.00;47.42
9969;BME280;5025;48.890;9.278;2023-03-29T14:02:40;98832.03;;;14.84;47.56
9969;BME280;5025;48.890;9.278;2023-03-29T14:05:11;98834.81;;;14.67;46.75
9969;BME280;5025;48.890;9.278;2023-03-29T14:07:39;98836.06;;;14.60;47.46
9969;BME280;5025;48.890;9.278;2023-03-29T14:10:06;98842.97;;;14.67;48.15
9969;BME280;5025;48.890;9.278;2023-03-29T14:12:35;98836.16;;;14.65;47.85
9969;BME280;5025;48.890;9.278;2023-03-29T14:15:03;98842.72;;;14.69;48.38
9969;BME280;5025;48.890;9.278;2023-03-29T14:17:29;98834.19;;;14.60;50.24
9969;BME280;5025;48.890;9.278;2023-03-29T14:19:56;98867.53;;;14.56;51.67
9969;BME280;5025;48.890;9.278;2023-03-29T14:22:22;98862.91;;;14.34;52.80
9969;BME280;5025;48.890;9.278;2023-03-29T14:24:52;98846.28;;;14.30;51.88
9969;BME280;5025;48.890;9.278;2023-03-29T14:27:19;98851.41;;;14.27;52.06
9969;BME280;5025;48.890;9.278;2023-03-29T14:29:46;98853.03;;;14.28;53.92
9969;BME280;5025;48.890;9.278;2023-03-29T14:32:17;98838.91;;;14.26;55.01
9969;BME280;5025;48.890;9.278;2023-03-29T14:34:46;98842.13;;;14.23;55.10
9969;BME280;5025;48.890;9.278;2023-03-29T14:37:15;98833.78;;;14.29;54.80
9969;BME280;5025;48.890;9.278;2023-03-29T14:39:41;98824.25;;;14.27;55.11
9969;BME280;5025;48.890;9.278;2023-03-29T14:42:14;98830.44;;;14.22;55.40
9969;BME280;5025;48.890;9.278;2023-03-29T14:44:42;98825.81;;;14.23;55.26
9969;BME280;5025;48.890;9.278;2023-03-29T14:47:15;98822.03;;;14.24;55.72
9969;BME280;5025;48.890;9.278;2023-03-29T14:49:43;98821.41;;;14.16;56.42
9969;BME280;5025;48.890;9.278;2023-03-29T14:52:09;98818.94;;;14.15;56.65
9969;BME280;5025;48.890;9.278;2023-03-29T14:54:43;98816.47;;;14.13;56.69
9969;BME280;5025;48.890;9.278;2023-03-29T14:57:16;98804.28;;;14.16;57.14
9969;BME280;5025;48.890;9.278;2023-03-29T14:59:51;98800.97;;;14.14;57.36
9969;BME280;5025;48.890;9.278;2023-03-29T15:02:36;98797.75;;;14.17;57.43
9969;BME280;5025;48.890;9.278;2023-03-29T15:05:06;98801.31;;;14.18;57.46